CheckWX is a tool to help pilots better visualize weather data.  It is not intended as a substitute for an official pre-flight weather briefing.

05:13:58 UTC

KEUL METAR
Caldwell Industrial Airport
Caldwell, Idaho, USA
Current

18 mins ago

KEUL 240456Z AUTO 09008KT 10SM UP BKN041 OVC049 02/01 A3009 RMK AO2 RAE50UPB03E13B50 SLP206 P0000 T00170006 FZRANO
Observed
Feb-24 @ 04:56 UTC
Wind
  • 090° at 8 KTS
Visibility
10 SM
Flight Rules
VFR
Conditions
Unknown precipitation
Cloud Levels
  • Broken at 4,100' AGL
  • Overcast at 4,900' AGL
Temperature
C / 36°F
Dewpoint
C / 34°F
Humidity
93%
Altimeter
30.09" Hg
Pressure
1020.6 hPa
Current Rain
0.01"
Previous

47 mins ago

KEUL 240427Z AUTO 08008KT 10SM -RA FEW019 OVC037 01/00 A3009 RMK AO2 UPB03E13 P0000 FZRANO
Observed
Feb-24 @ 04:27 UTC
Wind
  • 080° at 8 KTS
Visibility
10 SM
Flight Rules
VFR
Conditions
Light Rain
Cloud Levels
  • Few at 1,900' AGL
  • Overcast at 3,700' AGL
Temperature
C / 34°F
Dewpoint
C / 32°F
Humidity
93%
Altimeter
30.09" Hg
Pressure
1018.92 hPa
Current Rain
0.01"
Previous

1 hour ago

KEUL 240356Z AUTO 10010KT 10SM -RA FEW015 BKN020 OVC039 02/00 A3010 RMK AO2 RAE06B27UPB06E27 SLP210 P0000 T00170000 FZRANO
Observed
Feb-24 @ 03:56 UTC
Wind
  • 100° at 10 KTS
Visibility
10 SM
Flight Rules
MVFR
Conditions
Light Rain
Cloud Levels
  • Few at 1,500' AGL
  • Broken at 2,000' AGL
  • Overcast at 3,900' AGL
Temperature
C / 36°F
Dewpoint
C / 32°F
Humidity
87%
Altimeter
30.1" Hg
Pressure
1021 hPa
Current Rain
0.01"